createdAt,value
2018-10-11T00:00:13.177Z,46.10
2018-10-11T00:02:41.826Z,56.70
2018-10-11T00:05:10.464Z,56.83
2018-10-11T00:07:39.123Z,55.77
2018-10-11T00:10:08.039Z,55.50
2018-10-11T00:12:36.655Z,54.43
2018-10-11T00:15:05.467Z,50.33
2018-10-11T00:17:34.078Z,47.63
2018-10-11T00:20:02.809Z,48.07
2018-10-11T00:22:31.414Z,42.83
2018-10-11T00:25:00.044Z,42.63
2018-10-11T00:27:28.649Z,43.13
2018-10-11T00:29:57.285Z,38.57
2018-10-11T00:32:25.873Z,37.47
2018-10-11T00:34:54.506Z,37.00
2018-10-11T00:37:23.104Z,36.73
2018-10-11T00:39:52.532Z,45.03
2018-10-11T00:42:21.194Z,44.27
2018-10-11T00:44:49.830Z,40.70
2018-10-11T00:47:18.442Z,35.70
2018-10-11T00:49:47.102Z,35.23
2018-10-11T00:52:15.726Z,39.97
2018-10-11T00:54:44.374Z,36.47
2018-10-11T00:57:13.070Z,36.70
2018-10-11T00:59:41.713Z,35.37
2018-10-11T01:02:10.332Z,33.67
2018-10-11T01:04:38.975Z,33.77
2018-10-11T01:07:07.648Z,36.73
2018-10-11T01:09:36.299Z,36.47
2018-10-11T01:12:04.955Z,33.43
2018-10-11T01:14:33.584Z,36.27
2018-10-11T01:17:02.265Z,33.90
2018-10-11T01:19:30.935Z,33.30
2018-10-11T01:21:59.539Z,32.30
2018-10-11T01:24:28.167Z,31.40
2018-10-11T01:26:56.788Z,30.20
2018-10-11T01:29:25.439Z,29.93
2018-10-11T01:31:54.342Z,29.80
2018-10-11T01:34:22.967Z,30.67
2018-10-11T01:36:51.609Z,31.00
2018-10-11T01:39:20.259Z,30.03
2018-10-11T01:41:49.012Z,29.90
2018-10-11T01:44:17.725Z,30.03
2018-10-11T01:46:46.368Z,28.30
2018-10-11T01:49:15.277Z,26.93
2018-10-11T01:51:43.996Z,26.73
2018-10-11T01:54:12.634Z,26.03
2018-10-11T01:56:41.302Z,25.47
2018-10-11T01:59:10.186Z,25.87
2018-10-11T02:01:38.841Z,26.07
2018-10-11T02:04:07.973Z,27.90
2018-10-11T02:06:36.668Z,29.33
2018-10-11T02:09:06.478Z,30.47
2018-10-11T02:11:35.083Z,29.37
2018-10-11T02:14:03.698Z,31.67
2018-10-11T02:16:32.329Z,29.80
2018-10-11T02:19:00.989Z,31.33
2018-10-11T02:21:29.626Z,33.37
2018-10-11T02:23:58.233Z,36.10
2018-10-11T02:26:26.955Z,38.63
2018-10-11T02:28:55.574Z,39.63
2018-10-11T02:31:24.244Z,39.53
2018-10-11T02:33:52.870Z,43.70
2018-10-11T02:36:21.499Z,43.87
2018-10-11T02:38:50.116Z,43.03
2018-10-11T02:41:18.740Z,39.87
2018-10-11T02:43:47.357Z,40.13
2018-10-11T02:46:15.979Z,43.27
2018-10-11T02:48:45.387Z,43.93
2018-10-11T02:51:14.040Z,45.43
2018-10-11T02:53:42.670Z,44.70
2018-10-11T02:56:11.385Z,45.90
2018-10-11T02:58:51.278Z,43.50
2018-10-11T03:01:19.989Z,42.97
2018-10-11T03:03:49.840Z,45.70
2018-10-11T03:06:18.541Z,44.13
2018-10-11T03:08:47.249Z,42.87
2018-10-11T03:11:15.963Z,44.90
2018-10-11T03:13:44.561Z,47.13
2018-10-11T03:16:13.201Z,43.73
2018-10-11T03:18:41.831Z,53.43
2018-10-11T03:21:10.476Z,53.00
2018-10-11T03:23:39.146Z,61.83
2018-10-11T03:26:07.830Z,52.63
2018-10-11T03:28:36.434Z,48.73
2018-10-11T03:31:05.080Z,45.57
2018-10-11T03:33:33.732Z,45.70
2018-10-11T03:36:02.366Z,43.97
2018-10-11T03:38:31.692Z,40.83
2018-10-11T03:41:00.335Z,41.63
2018-10-11T03:43:29.111Z,56.20
2018-10-11T03:45:57.743Z,50.97
2018-10-11T03:48:26.384Z,46.47
2018-10-11T03:50:54.983Z,49.93
2018-10-11T03:53:23.628Z,42.70
2018-10-11T03:55:52.219Z,46.27
2018-10-11T03:58:20.871Z,52.03
2018-10-11T04:00:49.491Z,49.03
2018-10-11T04:03:18.156Z,52.67
2018-10-11T04:05:46.762Z,54.37
2018-10-11T04:08:15.416Z,43.77
2018-10-11T04:10:44.028Z,43.23
2018-10-11T04:13:13.254Z,48.00
2018-10-11T04:15:41.954Z,47.73
2018-10-11T04:18:10.565Z,50.37
2018-10-11T04:20:39.404Z,53.13
2018-10-11T04:23:08.007Z,51.03
2018-10-11T04:25:36.588Z,52.53
2018-10-11T04:28:05.191Z,54.47
2018-10-11T04:30:33.765Z,53.13
2018-10-11T04:33:02.364Z,47.67
2018-10-11T04:35:30.915Z,43.40
2018-10-11T04:37:59.535Z,46.17
2018-10-11T04:40:28.095Z,40.70
2018-10-11T04:42:56.810Z,40.30
2018-10-11T04:45:25.277Z,39.43
2018-10-11T04:47:53.892Z,39.27
2018-10-11T04:50:22.884Z,39.38
2018-10-11T04:52:51.570Z,39.60
2018-10-11T04:55:20.162Z,40.57
2018-10-11T04:57:48.769Z,39.83
2018-10-11T05:00:17.354Z,38.57
2018-10-11T05:02:45.980Z,39.67
2018-10-11T05:05:14.563Z,39.27
2018-10-11T05:07:43.169Z,39.23
2018-10-11T05:10:11.775Z,37.40
2018-10-11T05:12:40.388Z,38.20
2018-10-11T05:15:09.008Z,45.03
2018-10-11T05:17:37.684Z,40.47
2018-10-11T05:20:07.017Z,47.40
2018-10-11T05:22:35.654Z,44.47
2018-10-11T05:25:04.249Z,45.73
2018-10-11T05:27:32.854Z,47.30
2018-10-11T05:30:01.468Z,48.33
2018-10-11T05:32:30.581Z,48.87
2018-10-11T05:34:59.454Z,45.77
2018-10-11T05:37:28.052Z,49.23
2018-10-11T05:39:56.812Z,47.40
2018-10-11T05:42:25.464Z,39.63
2018-10-11T05:45:03.179Z,44.20
2018-10-11T05:47:31.826Z,38.13
2018-10-11T05:50:00.490Z,39.20
2018-10-11T05:52:29.135Z,37.60
2018-10-11T05:54:58.171Z,39.53
2018-10-11T05:57:27.242Z,45.67
2018-10-11T05:59:56.561Z,39.67
2018-10-11T06:02:28.610Z,39.77
2018-10-11T06:04:57.232Z,40.13
2018-10-11T06:07:25.878Z,46.20
2018-10-11T06:09:54.908Z,42.10
2018-10-11T06:12:23.545Z,41.73
2018-10-11T06:14:53.479Z,40.37
2018-10-11T06:17:22.987Z,37.83
2018-10-11T06:19:51.653Z,37.57
2018-10-11T06:22:20.292Z,39.20
2018-10-11T06:24:48.965Z,44.47
2018-10-11T06:27:17.560Z,39.47
2018-10-11T06:29:46.239Z,39.53
2018-10-11T06:32:14.880Z,47.83
2018-10-11T06:34:43.533Z,42.93
2018-10-11T06:37:12.128Z,38.60
2018-10-11T06:39:40.777Z,38.47
2018-10-11T06:42:09.434Z,35.20
2018-10-11T06:44:38.068Z,34.40
2018-10-11T06:47:06.671Z,32.67
2018-10-11T06:49:35.338Z,34.90
2018-10-11T06:52:03.997Z,35.23
2018-10-11T06:54:32.644Z,32.73
2018-10-11T06:57:01.196Z,34.80
2018-10-11T06:59:29.821Z,48.13
2018-10-11T07:01:59.073Z,41.37
2018-10-11T07:04:27.672Z,39.27
2018-10-11T07:06:56.222Z,35.17
2018-10-11T07:09:24.882Z,33.77
2018-10-11T07:11:53.446Z,29.20
2018-10-11T07:14:22.983Z,28.40
2018-10-11T07:16:51.562Z,27.67
2018-10-11T07:19:20.163Z,25.83
2018-10-11T07:21:48.765Z,25.30
2018-10-11T07:24:17.307Z,23.90
2018-10-11T07:26:45.895Z,22.87
2018-10-11T07:29:14.486Z,21.33
2018-10-11T07:31:43.096Z,20.80
2018-10-11T07:34:11.648Z,19.73
2018-10-11T07:36:40.200Z,19.20
2018-10-11T07:39:11.564Z,19.33
2018-10-11T07:41:40.133Z,18.77
2018-10-11T07:44:09.137Z,18.43
2018-10-11T07:46:38.266Z,17.70
2018-10-11T07:49:07.748Z,17.37
2018-10-11T07:51:36.307Z,18.00
2018-10-11T07:54:04.965Z,19.23
2018-10-11T07:56:34.026Z,19.23
2018-10-11T07:59:02.781Z,20.47
2018-10-11T08:01:31.986Z,20.53
2018-10-11T08:04:00.504Z,20.70
2018-10-11T08:06:29.672Z,20.27
2018-10-11T08:08:58.241Z,22.00
2018-10-11T08:11:27.098Z,21.73
2018-10-11T08:13:56.088Z,22.43
2018-10-11T08:16:24.804Z,21.60
2018-10-11T08:18:53.300Z,22.33
2018-10-11T08:21:21.927Z,23.57
2018-10-11T08:23:50.568Z,24.80
2018-10-11T08:26:19.421Z,26.83
2018-10-11T08:28:47.664Z,25.33
2018-10-11T08:31:16.229Z,27.80
2018-10-11T08:33:44.794Z,28.13
2018-10-11T08:36:13.349Z,27.73
2018-10-11T08:38:41.929Z,29.10
2018-10-11T08:41:10.497Z,30.00
2018-10-11T08:43:39.198Z,30.77
2018-10-11T08:46:07.742Z,30.97
2018-10-11T08:48:36.321Z,29.97
2018-10-11T08:51:04.931Z,29.63
2018-10-11T08:53:33.535Z,29.70
2018-10-11T08:56:02.175Z,29.37
2018-10-11T08:58:30.654Z,28.40
2018-10-11T09:00:59.230Z,28.33
2018-10-11T09:03:27.803Z,29.07
2018-10-11T09:05:56.338Z,29.60
2018-10-11T09:08:24.920Z,29.97
2018-10-11T09:10:53.448Z,29.33
2018-10-11T09:13:22.056Z,30.37
2018-10-11T09:15:50.588Z,31.20
2018-10-11T09:18:19.384Z,30.87
2018-10-11T09:20:48.252Z,33.50
2018-10-11T09:23:16.851Z,31.50
2018-10-11T09:25:45.483Z,34.00
2018-10-11T09:28:14.091Z,32.07
2018-10-11T09:30:42.683Z,32.80
2018-10-11T09:33:11.527Z,33.60
2018-10-11T09:35:40.079Z,34.43
2018-10-11T09:38:08.674Z,31.93
2018-10-11T09:40:37.250Z,32.73
2018-10-11T09:43:06.004Z,32.83
2018-10-11T09:45:34.541Z,32.07
2018-10-11T09:48:03.124Z,31.20
2018-10-11T09:50:31.646Z,32.03
2018-10-11T09:53:00.264Z,31.30
2018-10-11T09:55:28.790Z,31.87
2018-10-11T09:57:57.357Z,30.80
2018-10-11T10:00:31.337Z,32.37
2018-10-11T10:02:59.883Z,31.50
2018-10-11T10:05:28.472Z,31.70
2018-10-11T10:07:57.060Z,31.67
2018-10-11T10:10:25.632Z,31.97
2018-10-11T10:12:54.244Z,32.10
2018-10-11T10:15:22.798Z,32.43
2018-10-11T10:17:51.392Z,31.43
2018-10-11T10:20:19.929Z,32.37
2018-10-11T10:22:48.583Z,31.33
2018-10-11T10:25:17.131Z,30.20
2018-10-11T10:27:45.681Z,33.23
2018-10-11T10:30:19.621Z,33.50
2018-10-11T10:32:48.189Z,33.07
2018-10-11T10:35:16.711Z,33.90
2018-10-11T10:37:45.313Z,36.07
2018-10-11T10:40:13.863Z,33.90
2018-10-11T10:42:42.415Z,35.43
2018-10-11T10:45:10.968Z,34.70
2018-10-11T10:47:40.190Z,33.83
2018-10-11T10:50:08.771Z,34.73
2018-10-11T10:52:37.304Z,34.00
2018-10-11T10:55:05.951Z,34.13
2018-10-11T10:57:34.491Z,34.87
2018-10-11T11:00:03.085Z,34.67
2018-10-11T11:02:31.662Z,36.27
2018-10-11T11:05:00.175Z,35.60
2018-10-11T11:07:28.795Z,34.30
2018-10-11T11:09:57.336Z,35.20
2018-10-11T11:12:25.873Z,36.50
2018-10-11T11:14:54.435Z,34.93
2018-10-11T11:17:23.281Z,34.05
2018-10-11T11:19:51.857Z,33.37
2018-10-11T11:22:20.389Z,35.27
2018-10-11T11:24:48.988Z,33.83
2018-10-11T11:27:17.623Z,33.67
2018-10-11T11:29:46.219Z,33.27
2018-10-11T11:32:14.793Z,34.30
2018-10-11T11:34:43.363Z,34.13
2018-10-11T11:37:11.915Z,33.90
2018-10-11T11:39:40.475Z,33.00
2018-10-11T11:42:09.004Z,33.37
2018-10-11T11:44:37.592Z,32.50
2018-10-11T11:47:06.335Z,32.70
2018-10-11T11:49:34.908Z,30.83
2018-10-11T11:52:03.469Z,30.27
2018-10-11T11:54:32.030Z,29.33
2018-10-11T11:57:00.575Z,30.00
2018-10-11T11:59:29.144Z,31.23
2018-10-11T12:01:57.682Z,29.83
2018-10-11T12:04:26.232Z,28.93
2018-10-11T12:06:54.783Z,31.87
2018-10-11T12:09:23.381Z,31.60
2018-10-11T12:11:51.928Z,30.23
2018-10-11T12:14:20.507Z,31.13
2018-10-11T12:16:49.042Z,30.87
2018-10-11T12:19:17.598Z,31.23
2018-10-11T12:21:46.141Z,31.03
2018-10-11T12:24:14.723Z,29.40
2018-10-11T12:26:43.610Z,29.23
2018-10-11T12:29:12.180Z,30.10
2018-10-11T12:31:40.917Z,29.27
2018-10-11T12:34:09.524Z,29.23
2018-10-11T12:36:38.617Z,29.67
2018-10-11T12:39:08.552Z,29.67
2018-10-11T12:41:37.092Z,28.47
2018-10-11T12:44:05.813Z,28.87
2018-10-11T12:46:34.967Z,29.50
2018-10-11T12:49:02.985Z,26.67
2018-10-11T12:51:31.577Z,27.93
2018-10-11T12:54:00.118Z,25.43
2018-10-11T12:56:28.852Z,27.23
2018-10-11T12:58:58.330Z,27.37
2018-10-11T13:01:26.902Z,26.40
2018-10-11T13:03:55.432Z,26.63
2018-10-11T13:06:24.006Z,27.97
2018-10-11T13:08:52.555Z,28.90
2018-10-11T13:11:21.210Z,27.73
2018-10-11T13:13:52.021Z,27.37
2018-10-11T13:16:18.491Z,26.83
2018-10-11T13:18:47.068Z,26.67
2018-10-11T13:21:16.595Z,26.60
2018-10-11T13:23:45.160Z,26.70
2018-10-11T13:26:14.301Z,27.50
2018-10-11T13:28:43.724Z,27.20
2018-10-11T13:31:12.270Z,27.33
2018-10-11T13:33:40.804Z,25.70
2018-10-11T13:36:09.602Z,26.93
2018-10-11T13:38:38.340Z,28.10
2018-10-11T13:41:07.015Z,28.50
2018-10-11T13:43:35.575Z,25.30
2018-10-11T13:46:04.879Z,25.57
2018-10-11T13:48:33.428Z,23.23
2018-10-11T13:51:02.032Z,23.10
2018-10-11T13:53:30.629Z,25.80
2018-10-11T13:55:59.468Z,25.53
2018-10-11T13:58:28.088Z,25.33
2018-10-11T14:00:56.785Z,23.73
2018-10-11T14:03:25.736Z,21.67
2018-10-11T14:05:54.449Z,21.80
2018-10-11T14:08:23.486Z,23.83
2018-10-11T14:10:52.176Z,23.13
2018-10-11T14:13:20.841Z,19.97
2018-10-11T14:15:49.343Z,21.20
2018-10-11T14:18:17.976Z,23.23
2018-10-11T14:20:46.761Z,23.87
2018-10-11T14:23:15.818Z,23.30
2018-10-11T14:25:44.746Z,22.93
2018-10-11T14:28:13.290Z,24.47
2018-10-11T14:30:42.157Z,23.73
2018-10-11T14:33:10.759Z,22.63
2018-10-11T14:35:39.365Z,17.97
2018-10-11T14:38:07.922Z,17.60
2018-10-11T14:40:36.489Z,19.27
2018-10-11T14:43:05.233Z,21.27
2018-10-11T14:45:33.775Z,22.10
2018-10-11T14:48:02.396Z,21.23
2018-10-11T14:50:31.372Z,21.07
2018-10-11T14:52:59.945Z,21.37
2018-10-11T14:55:28.527Z,17.60
2018-10-11T14:57:57.123Z,19.47
2018-10-11T15:00:25.673Z,19.43
2018-10-11T15:02:54.321Z,20.13
2018-10-11T15:05:23.763Z,19.90
2018-10-11T15:07:52.316Z,19.70
2018-10-11T15:10:22.114Z,18.80
2018-10-11T15:12:50.673Z,19.03
2018-10-11T15:15:19.379Z,19.47
2018-10-11T15:17:48.502Z,16.60
2018-10-11T15:20:17.085Z,19.03
2018-10-11T15:22:45.695Z,17.23
2018-10-11T15:25:14.230Z,17.37
2018-10-11T15:27:42.882Z,15.83
2018-10-11T15:30:11.421Z,15.53
2018-10-11T15:32:39.977Z,16.37
2018-10-11T15:35:08.601Z,15.10
2018-10-11T15:37:37.161Z,15.75
2018-10-11T15:40:05.752Z,15.05
2018-10-11T15:42:34.390Z,13.88
2018-10-11T15:45:02.901Z,15.35
2018-10-11T15:47:31.679Z,15.88
2018-10-11T15:50:00.233Z,16.00
2018-10-11T15:52:28.821Z,16.25
2018-10-11T15:54:57.384Z,16.07
2018-10-11T15:57:25.981Z,14.87
2018-10-11T15:59:54.877Z,16.40
2018-10-11T16:02:23.534Z,16.30
2018-10-11T16:04:52.104Z,16.65
2018-10-11T16:07:20.668Z,17.80
2018-10-11T16:09:49.244Z,18.45
2018-10-11T16:12:17.812Z,16.35
2018-10-11T16:14:46.740Z,17.37
2018-10-11T16:17:15.419Z,17.73
2018-10-11T16:19:43.979Z,19.43
2018-10-11T16:22:12.533Z,19.60
2018-10-11T16:24:41.117Z,18.50
2018-10-11T16:27:09.693Z,19.60
2018-10-11T16:29:38.245Z,21.00
2018-10-11T16:32:07.000Z,20.03
2018-10-11T16:34:35.570Z,21.03
2018-10-11T16:37:04.114Z,20.87
2018-10-11T16:39:32.691Z,19.63
2018-10-11T16:42:01.234Z,20.33
2018-10-11T16:44:29.792Z,22.63
2018-10-11T16:46:58.358Z,23.67
2018-10-11T16:49:26.920Z,23.63
2018-10-11T16:51:55.498Z,20.87
2018-10-11T16:54:24.093Z,21.97
2018-10-11T16:56:52.632Z,21.13
2018-10-11T16:59:21.323Z,20.27
2018-10-11T17:01:50.155Z,21.43
2018-10-11T17:04:18.774Z,21.23
2018-10-11T17:06:47.332Z,21.37
2018-10-11T17:09:15.891Z,20.27
2018-10-11T17:11:44.453Z,21.60
2018-10-11T17:14:13.012Z,20.90
2018-10-11T17:16:41.582Z,19.73
2018-10-11T17:19:10.172Z,19.67
2018-10-11T17:21:38.793Z,19.37
2018-10-11T17:24:07.548Z,19.87
2018-10-11T17:26:36.199Z,20.37
2018-10-11T17:29:04.771Z,20.10
2018-10-11T17:31:33.353Z,19.33
2018-10-11T17:34:01.921Z,19.20
2018-10-11T17:36:31.074Z,21.40
2018-10-11T17:38:59.642Z,22.53
2018-10-11T17:41:28.175Z,20.90
2018-10-11T17:43:56.951Z,22.43
2018-10-11T17:46:25.472Z,22.47
2018-10-11T17:48:54.054Z,21.20
2018-10-11T17:51:22.632Z,23.63
2018-10-11T17:53:51.207Z,23.20
2018-10-11T17:56:19.762Z,24.43
2018-10-11T17:58:48.325Z,38.17
2018-10-11T18:01:16.874Z,25.47
2018-10-11T18:03:45.589Z,33.57
2018-10-11T18:06:14.164Z,25.23
2018-10-11T18:08:42.721Z,24.73
2018-10-11T18:11:11.254Z,24.53
2018-10-11T18:13:39.935Z,24.63
2018-10-11T18:16:08.552Z,24.83
2018-10-11T18:18:37.109Z,24.53
2018-10-11T18:21:05.671Z,25.93
2018-10-11T18:23:34.580Z,24.60
2018-10-11T18:26:03.116Z,23.77
2018-10-11T18:28:31.655Z,24.90
2018-10-11T18:31:00.216Z,26.60
2018-10-11T18:33:28.809Z,25.27
2018-10-11T18:35:57.621Z,28.40
2018-10-11T18:38:26.212Z,25.87
2018-10-11T18:40:54.911Z,26.07
2018-10-11T18:43:23.491Z,24.83
2018-10-11T18:45:52.211Z,25.33
2018-10-11T18:48:20.859Z,26.57
2018-10-11T18:50:49.449Z,24.20
2018-10-11T18:53:21.217Z,30.27
2018-10-11T18:55:49.922Z,26.00
2018-10-11T18:58:18.508Z,25.37
2018-10-11T19:00:48.374Z,38.83
2018-10-11T19:03:30.365Z,27.47
2018-10-11T19:06:05.401Z,25.50
2018-10-11T19:08:34.438Z,23.20
2018-10-11T19:11:03.981Z,23.73
2018-10-11T19:13:32.596Z,22.47
2018-10-11T19:18:53.002Z,22.97
2018-10-11T19:21:21.641Z,24.93
2018-10-11T19:23:50.976Z,26.67
2018-10-11T19:26:19.878Z,26.20
2018-10-11T19:28:51.862Z,27.63
2018-10-11T19:31:20.493Z,28.83
2018-10-11T19:33:49.073Z,29.47
2018-10-11T19:36:19.049Z,31.47
2018-10-11T19:38:47.730Z,33.70
2018-10-11T19:41:16.440Z,32.07
2018-10-11T19:44:01.349Z,32.53
2018-10-11T19:46:30.257Z,34.73
2018-10-11T19:48:58.914Z,36.37
2018-10-11T19:51:27.541Z,34.63
2018-10-11T19:53:56.104Z,34.57
2018-10-11T19:56:25.500Z,38.70
2018-10-11T19:58:54.050Z,36.07
2018-10-11T20:01:23.263Z,38.00
2018-10-11T20:03:51.893Z,35.13
2018-10-11T20:06:20.487Z,35.37
2018-10-11T20:08:50.990Z,37.77
2018-10-11T20:11:19.567Z,36.37
2018-10-11T20:13:48.103Z,39.73
2018-10-11T20:16:16.732Z,35.93
2018-10-11T20:19:21.390Z,34.97
2018-10-11T20:21:55.073Z,35.43
2018-10-11T20:24:23.920Z,37.50
2018-10-11T20:26:52.511Z,36.63
2018-10-11T20:29:21.113Z,36.27
2018-10-11T20:31:57.119Z,34.30
2018-10-11T20:34:25.685Z,35.67
2018-10-11T20:36:54.258Z,34.50
2018-10-11T20:39:23.199Z,34.50
2018-10-11T20:41:51.779Z,35.40
2018-10-11T20:44:20.348Z,35.17
2018-10-11T20:46:50.395Z,33.77
2018-10-11T20:49:23.425Z,34.37
2018-10-11T20:51:52.127Z,32.13
2018-10-11T20:54:21.540Z,31.47
2018-10-11T20:56:50.327Z,30.83
2018-10-11T20:59:18.900Z,30.73
2018-10-11T21:01:47.740Z,30.37
2018-10-11T21:04:16.312Z,28.57
2018-10-11T21:06:45.085Z,29.77
2018-10-11T21:09:14.125Z,27.73
2018-10-11T21:11:42.757Z,28.23
2018-10-11T21:14:11.288Z,28.57
2018-10-11T21:16:39.909Z,27.23
2018-10-11T21:19:08.642Z,27.67
2018-10-11T21:21:37.247Z,27.90
2018-10-11T21:24:05.913Z,27.87
2018-10-11T21:26:34.482Z,27.50
2018-10-11T21:29:03.063Z,27.20
2018-10-11T21:31:32.463Z,26.73
2018-10-11T21:34:01.012Z,26.70
2018-10-11T21:36:29.626Z,26.60
2018-10-11T21:38:58.183Z,26.63
2018-10-11T21:41:26.785Z,26.73
2018-10-11T21:43:55.348Z,26.43
2018-10-11T21:46:24.028Z,26.00
2018-10-11T21:48:52.581Z,26.67
2018-10-11T21:51:21.164Z,27.90
2018-10-11T21:53:49.697Z,26.37
2018-10-11T21:56:18.271Z,26.67
2018-10-11T21:58:46.830Z,27.17
2018-10-11T22:01:24.595Z,26.57
2018-10-11T22:03:53.662Z,26.20
2018-10-11T22:06:22.473Z,26.33
2018-10-11T22:08:51.043Z,28.03
2018-10-11T22:11:19.622Z,27.60
2018-10-11T22:13:48.192Z,28.40
2018-10-11T22:16:16.732Z,28.57
2018-10-11T22:18:45.284Z,28.17
2018-10-11T22:21:14.076Z,28.50
2018-10-11T22:23:43.397Z,29.10
2018-10-11T22:26:12.445Z,29.17
2018-10-11T22:28:41.800Z,28.80
2018-10-11T22:31:12.153Z,28.90
2018-10-11T22:33:41.303Z,29.07
2018-10-11T22:36:10.701Z,28.23
2018-10-11T22:38:39.290Z,28.87
2018-10-11T22:41:08.349Z,28.03
2018-10-11T22:43:36.929Z,27.83
2018-10-11T22:46:05.659Z,28.50
2018-10-11T22:48:34.232Z,27.23
2018-10-11T22:51:02.851Z,26.43
2018-10-11T22:53:31.423Z,26.60
2018-10-11T22:56:00.008Z,25.87
2018-10-11T22:58:28.574Z,26.37
2018-10-11T23:00:57.133Z,24.53
2018-10-11T23:03:25.692Z,23.50
2018-10-11T23:05:54.260Z,24.60
2018-10-11T23:08:22.811Z,23.07
2018-10-11T23:10:51.477Z,24.10
2018-10-11T23:13:20.043Z,24.67
2018-10-11T23:15:48.610Z,23.63
2018-10-11T23:18:17.201Z,24.97
2018-10-11T23:20:45.768Z,24.37
2018-10-11T23:23:14.316Z,24.20
2018-10-11T23:25:42.891Z,21.17
2018-10-11T23:28:11.428Z,21.83
2018-10-11T23:30:40.276Z,19.17
2018-10-11T23:33:08.817Z,18.50
2018-10-11T23:35:37.362Z,19.60
2018-10-11T23:38:05.972Z,19.40
2018-10-11T23:40:34.700Z,20.40
2018-10-11T23:43:03.440Z,21.97
2018-10-11T23:45:32.025Z,22.47
2018-10-11T23:48:00.611Z,23.00
2018-10-11T23:50:29.335Z,23.77
2018-10-11T23:52:57.891Z,23.40
2018-10-11T23:55:26.511Z,24.77
2018-10-11T23:57:55.053Z,25.40
